Time,TemperatureF,DewpointF,PressureIn,WindDirection,WindDirectionDegrees,WindSpeedMPH,WindSpeedGustMPH,Humidity,HourlyPrecipIn,Conditions,Clouds,dailyrainin,SoftwareType,DateUTC
2013-03-18 00:02:00,47.0,30.0,-100.00,NNW,328,2.0,4.0,51,-99.99,,,-99.99,,2013-03-18 07:02:00,
2013-03-18 00:12:00,47.0,28.0,-100.00,NNW,332,3.0,3.0,48,-99.99,,,-99.99,,2013-03-18 07:12:00,
2013-03-18 00:22:00,47.0,28.0,-100.00,NW,326,2.0,4.0,47,-99.99,,,-99.99,,2013-03-18 07:22:00,
2013-03-18 00:42:00,47.0,27.0,-100.00,NNW,334,3.0,4.0,45,-99.99,,,-99.99,,2013-03-18 07:42:00,
2013-03-18 00:52:00,46.0,25.0,-100.00,NNW,334,3.0,4.0,44,-99.99,,,-99.99,,2013-03-18 07:52:00,
2013-03-18 01:02:00,46.0,25.0,-100.00,NNW,327,3.0,5.0,44,-99.99,,,-99.99,,2013-03-18 08:02:00,
2013-03-18 01:12:00,46.0,25.0,-100.00,NNW,334,3.0,4.0,44,-99.99,,,-99.99,,2013-03-18 08:12:00,
2013-03-18 01:22:00,46.0,25.0,-100.00,NW,316,3.0,4.0,44,-99.99,,,-99.99,,2013-03-18 08:22:00,
2013-03-18 01:32:00,46.0,25.0,-100.00,NW,316,3.0,4.0,44,-99.99,,,-99.99,,2013-03-18 08:32:00,
2013-03-18 01:42:00,47.0,26.0,-100.00,NNW,341,3.0,4.0,43,-99.99,,,-99.99,,2013-03-18 08:42:00,
2013-03-18 01:52:00,47.0,25.0,-100.00,NNW,332,3.0,4.0,42,-99.99,,,-99.99,,2013-03-18 08:52:00,
2013-03-18 02:02:00,47.0,25.0,-100.00,NNW,338,3.0,4.0,42,-99.99,,,-99.99,,2013-03-18 09:02:00,
2013-03-18 02:12:00,47.0,25.0,-100.00,NW,318,2.0,2.0,41,-99.99,,,-99.99,,2013-03-18 09:12:00,
2013-03-18 02:22:00,48.0,24.0,-100.00,NNW,331,2.0,3.0,39,-99.99,,,-99.99,,2013-03-18 09:22:00,
2013-03-18 02:32:00,49.0,24.0,-100.00,NW,307,1.0,2.0,37,-99.99,,,-99.99,,2013-03-18 09:32:00,
2013-03-18 02:42:00,49.0,25.0,-100.00,WSW,243,0.0,1.0,38,-99.99,,,-99.99,,2013-03-18 09:42:00,
2013-03-18 02:53:00,48.0,23.0,-100.00,WSW,254,1.0,2.0,37,-99.99,,,-99.99,,2013-03-18 09:53:00,
2013-03-18 03:03:00,49.0,23.0,-100.00,NW,321,1.0,2.0,35,-99.99,,,-99.99,,2013-03-18 10:03:00,
2013-03-18 03:12:00,49.0,23.0,-100.00,NW,322,0.0,1.0,35,-99.99,,,-99.99,,2013-03-18 10:12:00,
2013-03-18 03:23:00,49.0,23.0,-100.00,WSW,249,1.0,2.0,36,-99.99,,,-99.99,,2013-03-18 10:23:00,
2013-03-18 03:32:00,49.0,23.0,-100.00,NW,309,2.0,3.0,35,-99.99,,,-99.99,,2013-03-18 10:32:00,
2013-03-18 03:42:00,48.0,22.0,-100.00,North,359,3.0,3.0,36,-99.99,,,-99.99,,2013-03-18 10:42:00,
2013-03-18 03:52:00,49.0,24.0,-100.00,NNE,19,3.0,4.0,37,-99.99,,,-99.99,,2013-03-18 10:52:00,
2013-03-18 04:02:00,51.0,26.0,-100.00,NNE,27,3.0,4.0,38,-99.99,,,-99.99,,2013-03-18 11:02:00,
2013-03-18 04:12:00,50.0,25.0,-100.00,WNW,297,2.0,3.0,37,-99.99,,,-99.99,,2013-03-18 11:12:00,
2013-03-18 04:22:00,48.0,24.0,-100.00,SSW,210,1.0,2.0,39,-99.99,,,-99.99,,2013-03-18 11:22:00,
2013-03-18 04:31:00,48.0,27.0,-100.00,NE,49,1.0,2.0,43,-99.99,,,-99.99,,2013-03-18 11:31:00,
2013-03-18 04:42:00,49.0,28.0,-100.00,NNE,31,1.0,2.0,44,-99.99,,,-99.99,,2013-03-18 11:42:00,
2013-03-18 04:52:00,49.0,27.0,-100.00,WSW,252,0.0,1.0,43,-99.99,,,-99.99,,2013-03-18 11:52:00,
2013-03-18 05:01:00,49.0,27.0,-100.00,WSW,252,0.0,1.0,43,-99.99,,,-99.99,,2013-03-18 12:01:00,
2013-03-18 05:12:00,48.0,27.0,-100.00,NNW,329,2.0,3.0,43,-99.99,,,-99.99,,2013-03-18 12:12:00,
2013-03-18 05:22:00,48.0,27.0,-100.00,NNW,329,2.0,3.0,43,-99.99,,,-99.99,,2013-03-18 12:22:00,
2013-03-18 05:32:00,46.0,24.0,-100.00,NNW,333,3.0,4.0,42,-99.99,,,-99.99,,2013-03-18 12:32:00,
2013-03-18 05:42:00,45.0,23.0,-100.00,NNW,328,4.0,4.0,42,-99.99,,,-99.99,,2013-03-18 12:42:00,
2013-03-18 05:52:00,45.0,23.0,-100.00,NNW,337,3.0,4.0,42,-99.99,,,-99.99,,2013-03-18 12:52:00,
2013-03-18 06:02:00,45.0,23.0,-100.00,NNW,332,3.0,3.0,41,-99.99,,,-99.99,,2013-03-18 13:02:00,
2013-03-18 06:12:00,46.0,23.0,-100.00,NNW,329,3.0,4.0,40,-99.99,,,-99.99,,2013-03-18 13:12:00,
2013-03-18 06:22:00,45.0,23.0,-100.00,NNW,328,3.0,3.0,41,-99.99,,,-99.99,,2013-03-18 13:22:00,
2013-03-18 06:32:00,45.0,23.0,-100.00,NW,326,3.0,4.0,41,-99.99,,,-99.99,,2013-03-18 13:32:00,
2013-03-18 06:42:00,45.0,24.0,-100.00,NNW,334,3.0,5.0,43,-99.99,,,-99.99,,2013-03-18 13:42:00,
2013-03-18 06:52:00,44.0,23.0,-100.00,NNW,345,3.0,4.0,43,-99.99,,,-99.99,,2013-03-18 13:52:00,
2013-03-18 07:02:00,44.0,23.0,-100.00,NNW,335,3.0,4.0,44,-99.99,,,-99.99,,2013-03-18 14:02:00,
2013-03-18 07:12:00,44.0,23.0,-100.00,NNW,332,3.0,4.0,43,-99.99,,,-99.99,,2013-03-18 14:12:00,
2013-03-18 07:22:00,44.0,23.0,-100.00,NNW,335,3.0,4.0,43,-99.99,,,-99.99,,2013-03-18 14:22:00,
2013-03-18 07:32:00,44.0,23.0,-100.00,NNW,342,3.0,4.0,43,-99.99,,,-99.99,,2013-03-18 14:32:00,
2013-03-18 07:42:00,45.0,23.0,-100.00,NNW,334,4.0,4.0,41,-99.99,,,-99.99,,2013-03-18 14:42:00,
2013-03-18 07:52:00,46.0,22.0,-100.00,NW,322,3.0,3.0,39,-99.99,,,-99.99,,2013-03-18 14:52:00,
2013-03-18 08:02:00,45.0,22.0,-100.00,North,350,2.0,3.0,40,-99.99,,,-99.99,,2013-03-18 15:02:00,
2013-03-18 08:12:00,46.0,22.0,-100.00,NNW,330,3.0,4.0,38,-99.99,,,-99.99,,2013-03-18 15:12:00,
2013-03-18 08:22:00,47.0,23.0,-100.00,NNW,335,2.0,3.0,38,-99.99,,,-99.99,,2013-03-18 15:22:00,
2013-03-18 08:33:00,48.0,22.0,-100.00,NNW,327,2.0,2.0,35,-99.99,,,-99.99,,2013-03-18 15:33:00,
2013-03-18 08:42:00,50.0,24.0,-100.00,North,355,1.0,2.0,36,-99.99,,,-99.99,,2013-03-18 15:42:00,
2013-03-18 08:52:00,52.0,23.0,-100.00,NE,42,2.0,4.0,32,-99.99,,,-99.99,,2013-03-18 15:52:00,
2013-03-18 09:02:00,55.0,23.0,-100.00,NE,45,2.0,3.0,29,-99.99,,,-99.99,,2013-03-18 16:02:00,
2013-03-18 09:12:00,57.0,22.0,-100.00,NE,51,1.0,2.0,26,-99.99,,,-99.99,,2013-03-18 16:12:00,
2013-03-18 09:22:00,57.0,22.0,-100.00,North,353,1.0,3.0,25,-99.99,,,-99.99,,2013-03-18 16:22:00,
2013-03-18 09:32:00,57.0,22.0,-100.00,WNW,296,1.0,3.0,26,-99.99,,,-99.99,,2013-03-18 16:32:00,
2013-03-18 09:42:00,56.0,22.0,-100.00,NW,304,2.0,3.0,26,-99.99,,,-99.99,,2013-03-18 16:42:00,
2013-03-18 09:52:00,57.0,22.0,-100.00,NW,311,1.0,3.0,25,-99.99,,,-99.99,,2013-03-18 16:52:00,
2013-03-18 10:02:00,58.0,21.0,-100.00,NNW,330,2.0,5.0,24,-99.99,,,-99.99,,2013-03-18 17:02:00,
2013-03-18 10:12:00,58.0,20.0,-100.00,WNW,303,3.0,6.0,23,-99.99,,,-99.99,,2013-03-18 17:12:00,
2013-03-18 10:21:00,59.0,20.0,-100.00,WNW,303,3.0,6.0,22,-99.99,,,-99.99,,2013-03-18 17:21:00,
2013-03-18 10:32:00,59.0,21.0,-100.00,NW,311,5.0,7.0,23,-99.99,,,-99.99,,2013-03-18 17:32:00,
2013-03-18 10:42:00,60.0,22.0,-100.00,WNW,303,4.0,8.0,23,-99.99,,,-99.99,,2013-03-18 17:42:00,
2013-03-18 10:52:00,61.0,21.0,-100.00,NW,314,5.0,8.0,21,-99.99,,,-99.99,,2013-03-18 17:52:00,
2013-03-18 11:02:00,61.0,20.0,-100.00,NW,315,5.0,8.0,20,-99.99,,,-99.99,,2013-03-18 18:02:00,
2013-03-18 11:12:00,63.0,21.0,-100.00,NNW,335,3.0,7.0,20,-99.99,,,-99.99,,2013-03-18 18:12:00,
2013-03-18 11:22:00,64.0,21.0,-100.00,NNW,337,3.0,7.0,19,-99.99,,,-99.99,,2013-03-18 18:22:00,
2013-03-18 11:32:00,65.0,22.0,-100.00,NW,306,5.0,10.0,19,-99.99,,,-99.99,,2013-03-18 18:32:00,
2013-03-18 11:42:00,64.0,24.0,-100.00,WNW,285,8.0,13.0,22,-99.99,,,-99.99,,2013-03-18 18:42:00,
2013-03-18 11:52:00,63.0,24.0,-100.00,WNW,294,7.0,12.0,22,-99.99,,,-99.99,,2013-03-18 18:52:00,
2013-03-18 12:02:00,63.0,24.0,-100.00,WNW,294,7.0,12.0,22,-99.99,,,-99.99,,2013-03-18 19:02:00,
2013-03-18 12:11:00,62.0,26.0,-100.00,WNW,293,9.0,14.0,25,-99.99,,,-99.99,,2013-03-18 19:11:00,
2013-03-18 12:22:00,62.0,27.0,-100.00,WNW,295,8.0,15.0,26,-99.99,,,-99.99,,2013-03-18 19:22:00,
2013-03-18 12:32:00,62.0,29.0,-100.00,West,273,9.0,15.0,28,-99.99,,,-99.99,,2013-03-18 19:32:00,
2013-03-18 12:42:00,62.0,30.0,-100.00,WNW,301,7.0,13.0,30,-99.99,,,-99.99,,2013-03-18 19:42:00,
2013-03-18 12:52:00,61.0,32.0,-100.00,WNW,289,7.0,12.0,33,-99.99,,,-99.99,,2013-03-18 19:52:00,
2013-03-18 13:02:00,62.0,33.0,-100.00,NW,316,7.0,11.0,33,-99.99,,,-99.99,,2013-03-18 20:02:00,
2013-03-18 13:12:00,64.0,32.0,-100.00,NW,321,5.0,10.0,30,-99.99,,,-99.99,,2013-03-18 20:12:00,
2013-03-18 13:22:00,64.0,30.0,-100.00,NW,308,6.0,12.0,28,-99.99,,,-99.99,,2013-03-18 20:22:00,
2013-03-18 13:32:00,64.0,29.0,-100.00,NW,304,9.0,13.0,27,-99.99,,,-99.99,,2013-03-18 20:32:00,
2013-03-18 13:42:00,63.0,30.0,-100.00,WNW,301,10.0,14.0,29,-99.99,,,-99.99,,2013-03-18 20:42:00,
2013-03-18 13:52:00,62.0,31.0,-100.00,WNW,297,10.0,15.0,31,-99.99,,,-99.99,,2013-03-18 20:52:00,
2013-03-18 14:02:00,62.0,31.0,-100.00,WNW,297,10.0,15.0,31,-99.99,,,-99.99,,2013-03-18 21:02:00,
2013-03-18 14:11:00,63.0,33.0,-100.00,WNW,286,8.0,13.0,32,-99.99,,,-99.99,,2013-03-18 21:11:00,
2013-03-18 14:22:00,63.0,34.0,-100.00,WNW,284,10.0,15.0,34,-99.99,,,-99.99,,2013-03-18 21:22:00,
2013-03-18 14:32:00,63.0,33.0,-100.00,WNW,294,10.0,15.0,33,-99.99,,,-99.99,,2013-03-18 21:32:00,
2013-03-18 14:42:00,62.0,35.0,-100.00,WNW,299,10.0,17.0,36,-99.99,,,-99.99,,2013-03-18 21:42:00,
2013-03-18 14:52:00,62.0,35.0,-100.00,WNW,289,11.0,16.0,37,-99.99,,,-99.99,,2013-03-18 21:52:00,
2013-03-18 15:03:00,61.0,35.0,-100.00,WNW,298,10.0,16.0,37,-99.99,,,-99.99,,2013-03-18 22:03:00,
2013-03-18 15:12:00,61.0,35.0,-100.00,WNW,294,9.0,16.0,37,-99.99,,,-99.99,,2013-03-18 22:12:00,
2013-03-18 15:22:00,61.0,36.0,-100.00,WNW,297,9.0,18.0,39,-99.99,,,-99.99,,2013-03-18 22:22:00,
2013-03-18 15:32:00,61.0,37.0,-100.00,WNW,293,8.0,12.0,41,-99.99,,,-99.99,,2013-03-18 22:32:00,
2013-03-18 15:42:00,61.0,38.0,-100.00,WNW,301,8.0,13.0,43,-99.99,,,-99.99,,2013-03-18 22:42:00,
2013-03-18 15:52:00,61.0,40.0,-100.00,NW,309,7.0,12.0,45,-99.99,,,-99.99,,2013-03-18 22:52:00,
2013-03-18 16:02:00,63.0,38.0,-100.00,NW,308,6.0,13.0,40,-99.99,,,-99.99,,2013-03-18 23:02:00,
2013-03-18 16:12:00,62.0,39.0,-100.00,WNW,299,8.0,13.0,43,-99.99,,,-99.99,,2013-03-18 23:12:00,
2013-03-18 16:22:00,62.0,40.0,-100.00,WNW,290,9.0,15.0,45,-99.99,,,-99.99,,2013-03-18 23:22:00,
2013-03-18 16:32:00,61.0,40.0,-100.00,WNW,296,9.0,13.0,46,-99.99,,,-99.99,,2013-03-18 23:32:00,
2013-03-18 16:42:00,61.0,42.0,-100.00,WNW,299,9.0,14.0,49,-99.99,,,-99.99,,2013-03-18 23:42:00,
2013-03-18 16:52:00,60.0,43.0,-100.00,West,279,10.0,15.0,54,-99.99,,,-99.99,,2013-03-18 23:52:00,
2013-03-18 17:02:00,60.0,43.0,-100.00,West,279,10.0,15.0,54,-99.99,,,-99.99,,2013-03-19 00:02:00,
2013-03-18 17:12:00,58.0,45.0,-100.00,WNW,287,9.0,14.0,62,-99.99,,,-99.99,,2013-03-19 00:12:00,
2013-03-18 17:22:00,57.0,45.0,-100.00,WNW,293,8.0,13.0,64,-99.99,,,-99.99,,2013-03-19 00:22:00,
2013-03-18 17:32:00,57.0,45.0,-100.00,WNW,295,9.0,12.0,64,-99.99,,,-99.99,,2013-03-19 00:32:00,
2013-03-18 17:42:00,57.0,45.0,-100.00,WNW,295,9.0,12.0,64,-99.99,,,-99.99,,2013-03-19 00:42:00,
2013-03-18 17:52:00,57.0,45.0,-100.00,NW,307,6.0,9.0,63,-99.99,,,-99.99,,2013-03-19 00:52:00,
2013-03-18 18:02:00,57.0,45.0,-100.00,NW,305,5.0,8.0,64,-99.99,,,-99.99,,2013-03-19 01:02:00,
2013-03-18 18:12:00,57.0,45.0,-100.00,WNW,301,3.0,6.0,64,-99.99,,,-99.99,,2013-03-19 01:12:00,
2013-03-18 18:22:00,57.0,45.0,-100.00,NW,308,4.0,7.0,64,-99.99,,,-99.99,,2013-03-19 01:22:00,
2013-03-18 18:32:00,56.0,45.0,-100.00,WNW,301,4.0,6.0,66,-99.99,,,-99.99,,2013-03-19 01:32:00,
2013-03-18 18:42:00,55.0,45.0,-100.00,NW,313,4.0,7.0,69,-99.99,,,-99.99,,2013-03-19 01:42:00,
2013-03-18 18:52:00,55.0,46.0,-100.00,NNW,327,3.0,4.0,71,-99.99,,,-99.99,,2013-03-19 01:52:00,
2013-03-18 19:01:00,55.0,46.0,-100.00,NNW,327,3.0,4.0,71,-99.99,,,-99.99,,2013-03-19 02:01:00,
2013-03-18 19:12:00,53.0,45.0,-100.00,North,359,3.0,4.0,75,-99.99,,,-99.99,,2013-03-19 02:12:00,
2013-03-18 19:22:00,53.0,46.0,-100.00,North,357,3.0,4.0,76,-99.99,,,-99.99,,2013-03-19 02:22:00,
2013-03-18 19:32:00,52.0,45.0,-100.00,NNW,334,3.0,3.0,78,-99.99,,,-99.99,,2013-03-19 02:32:00,
2013-03-18 19:42:00,52.0,46.0,-100.00,North,2,2.0,3.0,79,-99.99,,,-99.99,,2013-03-19 02:42:00,
2013-03-18 19:52:00,52.0,46.0,-100.00,North,7,1.0,2.0,80,-99.99,,,-99.99,,2013-03-19 02:52:00,
2013-03-18 20:01:00,51.0,45.0,-100.00,NW,316,0.0,1.0,80,-99.99,,,-99.99,,2013-03-19 03:01:00,
2013-03-18 20:11:00,51.0,45.0,-100.00,South,190,0.0,1.0,81,-99.99,,,-99.99,,2013-03-19 03:11:00,
2013-03-18 20:22:00,51.0,45.0,-100.00,SSW,204,1.0,2.0,81,-99.99,,,-99.99,,2013-03-19 03:22:00,
2013-03-18 20:32:00,51.0,45.0,-100.00,South,185,2.0,2.0,81,-99.99,,,-99.99,,2013-03-19 03:32:00,
2013-03-18 20:42:00,51.0,45.0,-100.00,SE,127,1.0,2.0,80,-99.99,,,-99.99,,2013-03-19 03:42:00,
2013-03-18 20:53:00,52.0,45.0,-100.00,ESE,118,3.0,3.0,77,-99.99,,,-99.99,,2013-03-19 03:53:00,
2013-03-18 21:02:00,53.0,46.0,-100.00,ESE,116,2.0,3.0,76,-99.99,,,-99.99,,2013-03-19 04:02:00,
2013-03-18 21:12:00,53.0,45.0,-100.00,SE,125,2.0,2.0,73,-99.99,,,-99.99,,2013-03-19 04:12:00,
2013-03-18 21:22:00,53.0,45.0,-100.00,SE,140,0.0,2.0,73,-99.99,,,-99.99,,2013-03-19 04:22:00,
2013-03-18 21:32:00,52.0,45.0,-100.00,SW,229,0.0,2.0,76,-99.99,,,-99.99,,2013-03-19 04:32:00,
2013-03-18 21:42:00,50.0,44.0,-100.00,West,272,2.0,5.0,80,-99.99,,,-99.99,,2013-03-19 04:42:00,
2013-03-18 21:52:00,50.0,42.0,-100.00,NNW,341,4.0,6.0,75,-99.99,,,-99.99,,2013-03-19 04:52:00,
2013-03-18 22:02:00,50.0,44.0,-100.00,North,1,4.0,4.0,79,-99.99,,,-99.99,,2013-03-19 05:02:00,
2013-03-18 22:11:00,49.0,43.0,-100.00,North,6,4.0,6.0,79,-99.99,,,-99.99,,2013-03-19 05:11:00,
2013-03-18 22:22:00,49.0,44.0,-100.00,North,11,4.0,6.0,83,-99.99,,,-99.99,,2013-03-19 05:22:00,
2013-03-18 22:32:00,49.0,44.0,-100.00,North,358,4.0,5.0,84,-99.99,,,-99.99,,2013-03-19 05:32:00,
2013-03-18 22:42:00,48.0,44.0,-100.00,North,355,4.0,4.0,85,-99.99,,,-99.99,,2013-03-19 05:42:00,
2013-03-18 22:52:00,48.0,44.0,-100.00,North,0,3.0,4.0,86,-99.99,,,-99.99,,2013-03-19 05:52:00,
2013-03-18 23:02:00,48.0,44.0,-100.00,NNW,336,2.0,3.0,86,-99.99,,,-99.99,,2013-03-19 06:02:00,
2013-03-18 23:12:00,48.0,44.0,-100.00,NW,325,2.0,3.0,86,-99.99,,,-99.99,,2013-03-19 06:12:00,
2013-03-18 23:22:00,47.0,43.0,-100.00,NNW,346,2.0,3.0,87,-99.99,,,-99.99,,2013-03-19 06:22:00,
2013-03-18 23:32:00,48.0,44.0,-100.00,NNW,328,2.0,3.0,87,-99.99,,,-99.99,,2013-03-19 06:32:00,
2013-03-18 23:42:00,48.0,44.0,-100.00,North,356,3.0,5.0,86,-99.99,,,-99.99,,2013-03-19 06:42:00,
2013-03-18 23:52:00,47.0,43.0,-100.00,NNW,345,4.0,5.0,86,-99.99,,,-99.99,,2013-03-19 06:52:00,